Airfield :







YOU CAN JOIN US ON...

 
LOGIN :

Register | Disclaimer

   EN    FR    IT 

 









Legend :    VFR   Marginal VFR   IFR   Intensive IFR   Very Intensive IFR
Visi :
Ceiling :
>= 8 km
>= 3000ft
5 to 8 km
1000 to 3000 ft
1500m to 5 km
500 to 1000 ft
800 to 1500m
200 to 500 ft
< 800m
< 200 ft
Symbols :   Thunderstorms  Fog  Heavy snow  Heavy precipitations  Wind > 20 kt






- Airport Elevation : 90 ft
- IATA code : YHU


CYHU - Montréal Saint-Hubert

CURRENT METAR :
  • 202000Z AUTO 12004KT 9SM BKN200 BKN220 11/05 A2997 RMK SLP153

EXPIRED METARs :
  • 201900Z AUTO 13005KT 110V200 9SM SCT160 BKN220 11/04 A2999 RMK SLP158
  • 201800Z AUTO 07005KT 050V170 9SM BKN160 11/04 A3000 RMK SLP161
  • 201700Z AUTO 05005KT 030V110 9SM BKN180 10/04 A3000 RMK SLP162

TAF TAF CYHU
Valid from the 20 at 18:00 until the 21 at 18:00 UTC


201739Z 2018/2118 03008KT P6SM BKN180
BECMG 2023/2101 VRB03KT
FM210500 VRB03KT P6SM FEW100
TEMPO 2105/2115 2SM BR
PROB30 2108/2115 1/2SM FG RMK FCST BASED ON AUTO OBS. NXT FCST BY 210000Z



MET'MAP, your aeronautical weather chart ! - Copyright ORBIFLY December 2007 - Disclaimer

ORBIFLY MET'MAP TEAM :

Programming & Development : Alexandra Zaïnal
Concept & Development : Baudouin d'Aumeries
Co-Development & Prog : Marc-Olivier Méhu
Technical & hardware support : Manuel Goepfert

Contact : metmap@orbifly.com




SOURCES & CREDITS :

   NOAA